KAL018 KLAX-RKSI
Flight info
| Callsign | KAL018 |
|---|---|
| Flight time | N/A |
| Altitude | 34000 |
| Route | SUMMR2 MCKEY DCT LIBBO DCT BRINY DCT ALCOA DCT DACEM DCT 40N130W 47N140W 51N150W 54N160W 55N170W 55N180E DCT ONEIL G469 NYMPH R220 NODAN R217 ASTER Y514 SDE Y512 GTC Y142 SAMON Y14 SUGNO Y16 SAPRA Y685 GUKDO GUKDO2H |
| Aircraft | B748/H-SDE3FGHIM1M2RWXY/LB1 |
Departure
| Time | 2026-05-05 19:50 |
|---|---|
| Airport | Los Angeles International Airport (KLAX) |
Arrival
| Time | N/A |
|---|---|
| Airport | Incheon International Airport (RKSI) |
| Time | Latitude | Longitude | Altitude | Speed | Heading |
|---|---|---|---|---|---|
| 2026-05-05 19:48 | 33.95040 | -118.39972 | 139 ft | 0 kts | 262° |
| 2026-05-05 19:48 | 33.95040 | -118.39973 | 139 ft | 0 kts | 262° |
| 2026-05-05 19:48 | 33.95039 | -118.39975 | 139 ft | 3 kts | 262° |
| 2026-05-05 19:49 | 33.95023 | -118.40130 | 139 ft | 43 kts | 263° |
| 2026-05-05 19:49 | 33.94987 | -118.40482 | 139 ft | 82 kts | 263° |
| 2026-05-05 19:49 | 33.94855 | -118.41772 | 140 ft | 151 kts | 263° |
| 2026-05-05 19:49 | 33.94707 | -118.43172 | 317 ft | 175 kts | 262° |
| 2026-05-05 19:50 | 33.94546 | -118.44616 | 967 ft | 174 kts | 262° |
| 2026-05-05 19:50 | 33.94393 | -118.46085 | 1550 ft | 179 kts | 263° |
| 2026-05-05 19:50 | 33.94290 | -118.47605 | 1967 ft | 185 kts | 265° |
| 2026-05-05 19:50 | 33.94239 | -118.49221 | 2011 ft | 199 kts | 267° |
| 2026-05-05 19:51 | 33.94232 | -118.50934 | 2142 ft | 210 kts | 268° |
| 2026-05-05 19:51 | 33.94151 | -118.52745 | 2247 ft | 223 kts | 264° |
| 2026-05-05 19:51 | 33.93988 | -118.54662 | 2337 ft | 237 kts | 263° |
| 2026-05-05 19:51 | 33.93799 | -118.56691 | 2462 ft | 251 kts | 263° |
| 2026-05-05 19:52 | 33.93616 | -118.58848 | 2612 ft | 265 kts | 264° |
| 2026-05-05 19:52 | 33.93435 | -118.61093 | 2937 ft | 274 kts | 264° |
| 2026-05-05 19:52 | 33.93249 | -118.63408 | 3413 ft | 280 kts | 264° |
| 2026-05-05 19:52 | 33.93065 | -118.65768 | 3953 ft | 287 kts | 265° |
| 2026-05-05 19:53 | 33.92887 | -118.68139 | 4521 ft | 291 kts | 265° |
| 2026-05-05 19:53 | 33.92700 | -118.70579 | 5140 ft | 293 kts | 265° |
| 2026-05-05 19:53 | 33.92508 | -118.73034 | 5764 ft | 296 kts | 265° |
| 2026-05-05 19:53 | 33.92316 | -118.75499 | 6465 ft | 295 kts | 265° |
| 2026-05-05 19:54 | 33.92122 | -118.77960 | 7094 ft | 298 kts | 265° |
| 2026-05-05 19:54 | 33.91927 | -118.80460 | 7646 ft | 302 kts | 265° |
| 2026-05-05 19:54 | 33.91737 | -118.83003 | 8149 ft | 308 kts | 267° |
| 2026-05-05 19:54 | 33.91702 | -118.85602 | 8664 ft | 313 kts | 271° |
| 2026-05-05 19:55 | 33.91788 | -118.88242 | 9215 ft | 317 kts | 273° |
| 2026-05-05 19:55 | 33.91910 | -118.90911 | 9791 ft | 320 kts | 273° |
| 2026-05-05 19:55 | 33.92005 | -118.93608 | 10282 ft | 327 kts | 273° |
| 2026-05-05 19:55 | 33.92089 | -118.96419 | 10442 ft | 345 kts | 272° |
| 2026-05-05 19:56 | 33.92203 | -118.99382 | 10567 ft | 363 kts | 277° |
| 2026-05-05 19:56 | 33.92875 | -119.02369 | 10676 ft | 380 kts | 292° |
| 2026-05-05 19:56 | 33.94049 | -119.05306 | 10818 ft | 397 kts | 298° |
| 2026-05-05 19:56 | 33.95484 | -119.08185 | 11289 ft | 404 kts | 303° |
| 2026-05-05 19:57 | 33.97048 | -119.11031 | 11836 ft | 410 kts | 303° |
| 2026-05-05 19:57 | 33.98077 | -119.12948 | 12202 ft | 414 kts | 302° |
| 2026-05-05 19:57 | 34.00192 | -119.16863 | 12964 ft | 419 kts | 309° |
| 2026-05-05 19:57 | 34.02212 | -119.19413 | 13477 ft | 424 kts | 318° |
| 2026-05-05 19:58 | 34.04478 | -119.21709 | 14049 ft | 427 kts | 322° |
| 2026-05-05 19:58 | 34.06835 | -119.23822 | 14675 ft | 428 kts | 324° |
| 2026-05-05 19:58 | 34.09321 | -119.25909 | 15235 ft | 432 kts | 326° |
| 2026-05-05 19:58 | 34.11768 | -119.27954 | 15790 ft | 435 kts | 325° |
| 2026-05-05 19:59 | 34.14250 | -119.30062 | 16311 ft | 438 kts | 325° |
| 2026-05-05 19:59 | 34.16755 | -119.32184 | 16852 ft | 441 kts | 325° |
| 2026-05-05 19:59 | 34.19264 | -119.34330 | 17376 ft | 444 kts | 325° |
| 2026-05-05 19:59 | 34.21773 | -119.36493 | 17992 ft | 444 kts | 325° |
| 2026-05-05 20:00 | 34.24301 | -119.38682 | 18392 ft | 449 kts | 324° |
| 2026-05-05 20:00 | 34.26844 | -119.40889 | 18927 ft | 451 kts | 325° |
| 2026-05-05 20:00 | 34.29393 | -119.43103 | 19471 ft | 453 kts | 325° |
| 2026-05-05 20:00 | 34.31967 | -119.45341 | 19846 ft | 458 kts | 325° |
| 2026-05-05 20:01 | 34.34564 | -119.47600 | 20328 ft | 460 kts | 325° |
| 2026-05-05 20:01 | 34.37168 | -119.49867 | 20814 ft | 462 kts | 325° |
| 2026-05-05 20:01 | 34.38685 | -119.51186 | 21095 ft | 463 kts | 325° |
| 2026-05-05 20:01 | 34.41171 | -119.53696 | 21525 ft | 468 kts | 318° |
| 2026-05-05 20:02 | 34.43456 | -119.56521 | 21994 ft | 471 kts | 314° |
| 2026-05-05 20:02 | 34.45632 | -119.59489 | 22461 ft | 474 kts | 313° |
| 2026-05-05 20:02 | 34.47763 | -119.62557 | 22836 ft | 478 kts | 312° |
| 2026-05-05 20:02 | 34.49898 | -119.65665 | 23217 ft | 481 kts | 312° |
| 2026-05-05 20:03 | 34.52050 | -119.68775 | 23626 ft | 483 kts | 313° |
| 2026-05-05 20:03 | 34.54220 | -119.71897 | 24008 ft | 485 kts | 313° |
| 2026-05-05 20:03 | 34.56410 | -119.75040 | 24358 ft | 488 kts | 313° |
| 2026-05-05 20:03 | 34.58607 | -119.78190 | 24707 ft | 491 kts | 313° |
| 2026-05-05 20:04 | 34.60820 | -119.81361 | 25013 ft | 494 kts | 313° |
| 2026-05-05 20:04 | 34.63043 | -119.84547 | 25348 ft | 495 kts | 313° |
| 2026-05-05 20:04 | 34.65282 | -119.87720 | 25824 ft | 494 kts | 314° |
| 2026-05-05 20:04 | 34.66764 | -119.89817 | 26127 ft | 493 kts | 314° |
| 2026-05-05 20:05 | 34.69743 | -119.94053 | 26648 ft | 493 kts | 314° |
| 2026-05-05 20:05 | 34.71964 | -119.97224 | 27033 ft | 492 kts | 314° |
| 2026-05-05 20:05 | 34.73430 | -119.99320 | 27273 ft | 492 kts | 314° |
| 2026-05-05 20:05 | 34.75639 | -120.02484 | 27635 ft | 491 kts | 314° |
| 2026-05-05 20:06 | 34.77845 | -120.05647 | 27984 ft | 490 kts | 314° |
| 2026-05-05 20:06 | 34.80050 | -120.08814 | 28316 ft | 490 kts | 315° |
| 2026-05-05 20:06 | 34.82256 | -120.11983 | 28606 ft | 490 kts | 315° |
| 2026-05-05 20:06 | 34.84446 | -120.15134 | 28994 ft | 487 kts | 315° |
| 2026-05-05 20:07 | 34.86640 | -120.18295 | 29194 ft | 489 kts | 315° |
| 2026-05-05 20:07 | 34.88836 | -120.21460 | 29464 ft | 488 kts | 315° |
| 2026-05-05 20:07 | 34.91025 | -120.24617 | 29746 ft | 487 kts | 315° |
| 2026-05-05 20:07 | 34.93208 | -120.27770 | 29953 ft | 487 kts | 315° |
| 2026-05-05 20:08 | 34.95398 | -120.30936 | 30187 ft | 487 kts | 316° |
| 2026-05-05 20:08 | 34.97575 | -120.34085 | 30385 ft | 487 kts | 316° |
| 2026-05-05 20:08 | 34.99757 | -120.37245 | 30586 ft | 487 kts | 316° |
| 2026-05-05 20:08 | 35.01939 | -120.40408 | 30724 ft | 487 kts | 316° |
| 2026-05-05 20:09 | 35.04120 | -120.43572 | 30887 ft | 488 kts | 316° |
| 2026-05-05 20:09 | 35.06302 | -120.46740 | 31026 ft | 488 kts | 316° |
| 2026-05-05 20:09 | 35.08482 | -120.49908 | 31192 ft | 488 kts | 316° |
| 2026-05-05 20:09 | 35.10667 | -120.53087 | 31327 ft | 487 kts | 315° |
| 2026-05-05 20:10 | 35.12845 | -120.56259 | 31432 ft | 488 kts | 316° |
| 2026-05-05 20:10 | 35.15024 | -120.59434 | 31575 ft | 488 kts | 316° |
| 2026-05-05 20:10 | 35.17202 | -120.62611 | 31691 ft | 488 kts | 316° |
| 2026-05-05 20:11 | 35.21571 | -120.68994 | 31904 ft | 488 kts | 316° |
| 2026-05-05 20:11 | 35.23717 | -120.72133 | 32048 ft | 487 kts | 316° |
| 2026-05-05 20:11 | 35.25888 | -120.75312 | 32135 ft | 488 kts | 316° |
| 2026-05-05 20:12 | 35.30254 | -120.81671 | 32307 ft | 488 kts | 316° |
| 2026-05-05 20:12 | 35.34617 | -120.88075 | 32441 ft | 490 kts | 315° |
| 2026-05-05 20:13 | 35.38971 | -120.94500 | 32616 ft | 489 kts | 315° |
| 2026-05-05 20:13 | 35.43311 | -121.00918 | 32763 ft | 490 kts | 315° |
| 2026-05-05 20:14 | 35.47665 | -121.07357 | 32946 ft | 489 kts | 316° |
| 2026-05-05 20:14 | 35.52062 | -121.13739 | 33046 ft | 490 kts | 316° |
| 2026-05-05 20:15 | 35.56487 | -121.20096 | 33235 ft | 489 kts | 316° |
| 2026-05-05 20:15 | 35.60901 | -121.26468 | 33296 ft | 491 kts | 316° |
| 2026-05-05 20:16 | 35.65323 | -121.32871 | 33411 ft | 491 kts | 317° |
| 2026-05-05 20:16 | 35.67503 | -121.36031 | 33524 ft | 490 kts | 317° |
| 2026-05-05 20:16 | 35.69728 | -121.39258 | 33627 ft | 489 kts | 317° |
| 2026-05-05 20:17 | 35.74151 | -121.45620 | 33792 ft | 488 kts | 317° |
| 2026-05-05 20:17 | 35.78533 | -121.51961 | 33941 ft | 488 kts | 317° |
| 2026-05-05 20:17 | 35.80735 | -121.55129 | 34085 ft | 487 kts | 317° |